sensor_id;sensor_type;location;lat;lon;timestamp;pressure;altitude;pressure_sealevel;temperature;humidity
34081;BME280;20358;50.272;19.026;2024-03-07T00:02:47;98758.16;;;8.74;58.52
34081;BME280;20358;50.272;19.026;2024-03-07T00:05:57;98758.25;;;8.71;58.24
34081;BME280;20358;50.272;19.026;2024-03-07T00:09:04;98758.25;;;8.71;58.25
34081;BME280;20358;50.272;19.026;2024-03-07T00:12:12;98745.69;;;8.57;58.30
34081;BME280;20358;50.272;19.026;2024-03-07T00:15:19;98752.41;;;8.64;58.20
34081;BME280;20358;50.272;19.026;2024-03-07T00:18:25;98758.56;;;8.62;58.84
34081;BME280;20358;50.272;19.026;2024-03-07T00:21:34;98731.91;;;8.54;58.57
34081;BME280;20358;50.272;19.026;2024-03-07T00:24:40;98762.53;;;8.72;58.85
34081;BME280;20358;50.272;19.026;2024-03-07T00:27:50;98753.78;;;8.74;58.96
34081;BME280;20358;50.272;19.026;2024-03-07T00:30:56;98746.69;;;8.78;58.74
34081;BME280;20358;50.272;19.026;2024-03-07T00:34:03;98749.31;;;8.78;58.65
34081;BME280;20358;50.272;19.026;2024-03-07T00:37:20;98752.03;;;8.75;58.66
34081;BME280;20358;50.272;19.026;2024-03-07T00:40:28;98757.31;;;8.73;59.02
34081;BME280;20358;50.272;19.026;2024-03-07T00:43:33;98754.59;;;8.77;58.85
34081;BME280;20358;50.272;19.026;2024-03-07T00:46:40;98757.41;;;8.70;58.88
34081;BME280;20358;50.272;19.026;2024-03-07T00:49:46;98758.38;;;8.68;58.96
34081;BME280;20358;50.272;19.026;2024-03-07T00:52:55;98752.19;;;8.70;59.05
34081;BME280;20358;50.272;19.026;2024-03-07T00:56:02;98748.53;;;8.76;59.10
34081;BME280;20358;50.272;19.026;2024-03-07T00:59:09;98748.41;;;8.79;58.70
34081;BME280;20358;50.272;19.026;2024-03-07T01:02:15;98756.34;;;8.76;58.37
34081;BME280;20358;50.272;19.026;2024-03-07T01:05:23;98747.72;;;8.74;58.24
34081;BME280;20358;50.272;19.026;2024-03-07T01:08:31;98748.09;;;8.63;58.26
34081;BME280;20358;50.272;19.026;2024-03-07T01:11:40;98756.75;;;8.64;58.55
34081;BME280;20358;50.272;19.026;2024-03-07T01:14:48;98748.69;;;8.47;58.50
34081;BME280;20358;50.272;19.026;2024-03-07T01:17:55;98749.81;;;8.40;58.91
34081;BME280;20358;50.272;19.026;2024-03-07T01:21:01;98745.47;;;8.39;59.02
34081;BME280;20358;50.272;19.026;2024-03-07T01:24:11;98741.06;;;8.41;59.02
34081;BME280;20358;50.272;19.026;2024-03-07T01:27:20;98744.41;;;8.44;58.70
34081;BME280;20358;50.272;19.026;2024-03-07T01:30:27;98739.22;;;8.44;58.47
34081;BME280;20358;50.272;19.026;2024-03-07T01:33:33;98741.97;;;8.40;58.25
34081;BME280;20358;50.272;19.026;2024-03-07T01:36:40;98744.69;;;8.37;58.63
34081;BME280;20358;50.272;19.026;2024-03-07T01:39:49;98736.88;;;8.37;58.60
34081;BME280;20358;50.272;19.026;2024-03-07T01:42:56;98738.78;;;8.32;58.39
34081;BME280;20358;50.272;19.026;2024-03-07T01:46:02;98740.59;;;8.30;58.62
34081;BME280;20358;50.272;19.026;2024-03-07T01:49:10;98748.44;;;8.28;58.86
34081;BME280;20358;50.272;19.026;2024-03-07T01:52:17;98743.25;;;8.28;58.95
34081;BME280;20358;50.272;19.026;2024-03-07T01:55:28;98740.69;;;8.27;58.67
34081;BME280;20358;50.272;19.026;2024-03-07T01:58:36;98741.56;;;8.27;58.83
34081;BME280;20358;50.272;19.026;2024-03-07T02:01:44;98739.88;;;8.25;58.45
34081;BME280;20358;50.272;19.026;2024-03-07T02:04:49;98731.13;;;8.26;58.73
34081;BME280;20358;50.272;19.026;2024-03-07T02:07:56;98731.97;;;8.28;58.99
34081;BME280;20358;50.272;19.026;2024-03-07T02:11:06;98731.97;;;8.28;58.52
34081;BME280;20358;50.272;19.026;2024-03-07T02:14:13;98726.00;;;8.24;58.25
34081;BME280;20358;50.272;19.026;2024-03-07T02:17:19;98721.78;;;8.20;58.48
34081;BME280;20358;50.272;19.026;2024-03-07T02:20:26;98720.28;;;8.13;58.29
34081;BME280;20358;50.272;19.026;2024-03-07T02:23:35;98719.25;;;8.17;58.46
34081;BME280;20358;50.272;19.026;2024-03-07T02:26:42;98721.06;;;8.15;57.79
34081;BME280;20358;50.272;19.026;2024-03-07T02:29:48;98718.44;;;8.17;58.34
34081;BME280;20358;50.272;19.026;2024-03-07T02:32:55;98720.03;;;8.21;58.30
34081;BME280;20358;50.272;19.026;2024-03-07T02:36:02;98718.34;;;8.20;57.99
34081;BME280;20358;50.272;19.026;2024-03-07T02:39:12;98720.88;;;8.21;58.50
34081;BME280;20358;50.272;19.026;2024-03-07T02:42:19;98716.91;;;8.09;58.27
34081;BME280;20358;50.272;19.026;2024-03-07T02:45:25;98723.84;;;8.10;58.59
34081;BME280;20358;50.272;19.026;2024-03-07T02:48:32;98729.16;;;8.07;58.60
34081;BME280;20358;50.272;19.026;2024-03-07T02:51:39;98726.44;;;8.10;58.86
34081;BME280;20358;50.272;19.026;2024-03-07T02:54:47;98718.63;;;8.10;58.73
34081;BME280;20358;50.272;19.026;2024-03-07T02:57:54;98718.53;;;8.13;58.71
34081;BME280;20358;50.272;19.026;2024-03-07T03:01:01;98717.94;;;8.05;58.08
34081;BME280;20358;50.272;19.026;2024-03-07T03:04:09;98724.91;;;8.05;58.51
34081;BME280;20358;50.272;19.026;2024-03-07T03:07:15;98726.78;;;8.00;58.46
34081;BME280;20358;50.272;19.026;2024-03-07T03:10:25;98731.16;;;7.99;58.34
34081;BME280;20358;50.272;19.026;2024-03-07T03:13:32;98724.25;;;7.98;58.31
34081;BME280;20358;50.272;19.026;2024-03-07T03:16:41;98726.25;;;7.90;58.34
34081;BME280;20358;50.272;19.026;2024-03-07T03:19:50;98724.09;;;7.77;58.55
34081;BME280;20358;50.272;19.026;2024-03-07T03:22:58;98724.44;;;7.66;58.65
34081;BME280;20358;50.272;19.026;2024-03-07T03:26:23;98722.59;;;7.70;58.95
34081;BME280;20358;50.272;19.026;2024-03-07T03:29:30;98720.94;;;7.67;59.07
34081;BME280;20358;50.272;19.026;2024-03-07T03:32:36;98729.53;;;7.69;59.16
34081;BME280;20358;50.272;19.026;2024-03-07T03:35:44;98728.69;;;7.69;58.97
34081;BME280;20358;50.272;19.026;2024-03-07T03:38:50;98744.63;;;7.58;58.60
34081;BME280;20358;50.272;19.026;2024-03-07T03:41:59;98737.75;;;7.57;58.99
34081;BME280;20358;50.272;19.026;2024-03-07T03:45:07;98733.44;;;7.56;58.89
34081;BME280;20358;50.272;19.026;2024-03-07T03:48:17;98735.41;;;7.48;58.52
34081;BME280;20358;50.272;19.026;2024-03-07T03:51:23;98732.97;;;7.42;59.01
34081;BME280;20358;50.272;19.026;2024-03-07T03:54:30;98732.97;;;7.42;59.07
34081;BME280;20358;50.272;19.026;2024-03-07T03:57:40;98734.53;;;7.49;58.80
34081;BME280;20358;50.272;19.026;2024-03-07T04:00:50;98733.81;;;7.44;58.31
34081;BME280;20358;50.272;19.026;2024-03-07T04:03:56;98735.50;;;7.45;58.41
34081;BME280;20358;50.272;19.026;2024-03-07T04:07:02;98741.69;;;7.41;58.10
34081;BME280;20358;50.272;19.026;2024-03-07T04:10:10;98719.72;;;7.22;57.99
34081;BME280;20358;50.272;19.026;2024-03-07T04:13:20;98742.41;;;7.18;57.87
34081;BME280;20358;50.272;19.026;2024-03-07T04:16:28;98745.94;;;7.16;58.12
34081;BME280;20358;50.272;19.026;2024-03-07T04:19:35;98736.47;;;7.13;58.29
34081;BME280;20358;50.272;19.026;2024-03-07T04:22:41;98746.75;;;7.18;58.47
34081;BME280;20358;50.272;19.026;2024-03-07T04:25:48;98742.34;;;7.20;58.23
34081;BME280;20358;50.272;19.026;2024-03-07T04:28:56;98747.63;;;7.17;58.36
34081;BME280;20358;50.272;19.026;2024-03-07T04:32:04;98742.34;;;7.20;58.14
34081;BME280;20358;50.272;19.026;2024-03-07T04:35:11;98738.34;;;7.08;58.31
34081;BME280;20358;50.272;19.026;2024-03-07T04:38:22;98743.53;;;7.08;58.72
34081;BME280;20358;50.272;19.026;2024-03-07T04:41:30;98754.88;;;7.06;58.79
34081;BME280;20358;50.272;19.026;2024-03-07T04:44:40;98748.28;;;6.94;58.54
34081;BME280;20358;50.272;19.026;2024-03-07T04:47:46;98746.78;;;6.85;58.78
34081;BME280;20358;50.272;19.026;2024-03-07T04:50:53;98747.00;;;6.79;59.24
34081;BME280;20358;50.272;19.026;2024-03-07T04:54:00;98743.47;;;6.80;59.19
34081;BME280;20358;50.272;19.026;2024-03-07T04:57:07;98752.19;;;6.79;59.23
34081;BME280;20358;50.272;19.026;2024-03-07T05:00:16;98764.09;;;6.86;59.27
34081;BME280;20358;50.272;19.026;2024-03-07T05:03:24;98754.78;;;6.79;59.21
34081;BME280;20358;50.272;19.026;2024-03-07T05:06:30;98760.47;;;6.61;59.48
34081;BME280;20358;50.272;19.026;2024-03-07T05:09:37;98764.59;;;6.68;59.32
34081;BME280;20358;50.272;19.026;2024-03-07T05:12:42;98764.34;;;6.77;59.34
34081;BME280;20358;50.272;19.026;2024-03-07T05:15:52;98759.75;;;6.87;59.26
34081;BME280;20358;50.272;19.026;2024-03-07T05:18:57;98765.78;;;6.87;58.88
34081;BME280;20358;50.272;19.026;2024-03-07T05:22:04;98767.94;;;6.73;59.16
34081;BME280;20358;50.272;19.026;2024-03-07T05:25:16;98776.53;;;6.75;58.95
34081;BME280;20358;50.272;19.026;2024-03-07T05:28:25;98771.75;;;6.60;59.00
34081;BME280;20358;50.272;19.026;2024-03-07T05:31:35;98775.72;;;6.73;59.13
34081;BME280;20358;50.272;19.026;2024-03-07T05:34:47;98773.94;;;6.75;58.59
34081;BME280;20358;50.272;19.026;2024-03-07T05:37:53;98777.34;;;6.77;58.71
34081;BME280;20358;50.272;19.026;2024-03-07T05:40:59;98781.69;;;6.77;58.55
34081;BME280;20358;50.272;19.026;2024-03-07T05:44:08;98784.25;;;6.78;58.48
34081;BME280;20358;50.272;19.026;2024-03-07T05:47:17;98779.69;;;6.86;58.32
34081;BME280;20358;50.272;19.026;2024-03-07T05:50:24;98784.81;;;6.90;58.07
34081;BME280;20358;50.272;19.026;2024-03-07T05:53:32;98786.50;;;6.91;57.59
34081;BME280;20358;50.272;19.026;2024-03-07T05:56:40;98792.59;;;6.90;56.92
34081;BME280;20358;50.272;19.026;2024-03-07T05:59:47;98784.69;;;6.93;56.73
34081;BME280;20358;50.272;19.026;2024-03-07T06:02:55;98792.41;;;6.96;56.40
34081;BME280;20358;50.272;19.026;2024-03-07T06:06:03;98795.09;;;6.93;56.20
34081;BME280;20358;50.272;19.026;2024-03-07T06:09:14;98775.22;;;6.92;56.73
34081;BME280;20358;50.272;19.026;2024-03-07T06:12:24;98787.69;;;7.10;56.60
34081;BME280;20358;50.272;19.026;2024-03-07T06:15:31;98796.13;;;7.18;56.31
34081;BME280;20358;50.272;19.026;2024-03-07T06:18:40;98795.34;;;7.14;56.11
34081;BME280;20358;50.272;19.026;2024-03-07T06:21:49;98796.13;;;7.18;55.99
34081;BME280;20358;50.272;19.026;2024-03-07T06:24:57;98792.75;;;7.16;55.98
34081;BME280;20358;50.272;19.026;2024-03-07T06:28:09;98806.88;;;7.06;55.85
34081;BME280;20358;50.272;19.026;2024-03-07T06:31:16;98794.84;;;7.02;55.94
34081;BME280;20358;50.272;19.026;2024-03-07T06:34:25;98795.59;;;7.07;56.08
34081;BME280;20358;50.272;19.026;2024-03-07T06:37:35;98802.72;;;7.00;55.59
34081;BME280;20358;50.272;19.026;2024-03-07T06:40:42;98798.34;;;7.01;55.75
34081;BME280;20358;50.272;19.026;2024-03-07T06:43:48;98805.25;;;7.02;55.58
34081;BME280;20358;50.272;19.026;2024-03-07T06:46:55;98811.34;;;7.01;55.87
34081;BME280;20358;50.272;19.026;2024-03-07T06:50:05;98812.06;;;7.06;55.68
34081;BME280;20358;50.272;19.026;2024-03-07T06:53:21;98809.34;;;7.10;55.52
34081;BME280;20358;50.272;19.026;2024-03-07T06:56:30;98804.03;;;7.15;55.48
34081;BME280;20358;50.272;19.026;2024-03-07T06:59:39;98806.53;;;7.18;55.43
34081;BME280;20358;50.272;19.026;2024-03-07T07:02:45;98809.84;;;7.23;55.72
34081;BME280;20358;50.272;19.026;2024-03-07T07:05:54;98799.53;;;7.20;55.32
34081;BME280;20358;50.272;19.026;2024-03-07T07:09:02;98806.25;;;7.27;55.02
34081;BME280;20358;50.272;19.026;2024-03-07T07:12:08;98808.63;;;7.34;54.93
34081;BME280;20358;50.272;19.026;2024-03-07T07:15:17;98806.09;;;7.33;55.15
34081;BME280;20358;50.272;19.026;2024-03-07T07:18:24;98807.69;;;7.37;54.98
34081;BME280;20358;50.272;19.026;2024-03-07T07:21:33;98801.56;;;7.39;55.01
34081;BME280;20358;50.272;19.026;2024-03-07T07:24:39;98800.59;;;7.42;54.65
34081;BME280;20358;50.272;19.026;2024-03-07T07:27:47;98807.44;;;7.46;54.82
34081;BME280;20358;50.272;19.026;2024-03-07T07:30:55;98803.84;;;7.50;54.78
34081;BME280;20358;50.272;19.026;2024-03-07T07:34:02;98808.16;;;7.51;54.73
34081;BME280;20358;50.272;19.026;2024-03-07T07:37:11;98812.34;;;7.55;54.86
34081;BME280;20358;50.272;19.026;2024-03-07T07:40:19;98809.25;;;7.44;54.76
34081;BME280;20358;50.272;19.026;2024-03-07T07:43:26;98807.69;;;7.37;55.02
34081;BME280;20358;50.272;19.026;2024-03-07T07:46:45;98809.31;;;7.41;55.10
34081;BME280;20358;50.272;19.026;2024-03-07T07:49:52;98760.97;;;7.05;54.93
34081;BME280;20358;50.272;19.026;2024-03-07T07:53:01;98772.13;;;7.08;55.21
34081;BME280;20358;50.272;19.026;2024-03-07T07:56:09;98816.34;;;7.39;55.40
34081;BME280;20358;50.272;19.026;2024-03-07T07:59:16;98770.47;;;7.06;55.15
34081;BME280;20358;50.272;19.026;2024-03-07T08:02:22;98812.97;;;7.35;55.31
34081;BME280;20358;50.272;19.026;2024-03-07T08:05:32;98816.41;;;7.36;55.34
34081;BME280;20358;50.272;19.026;2024-03-07T08:08:42;98813.00;;;7.34;55.48
34081;BME280;20358;50.272;19.026;2024-03-07T08:11:49;98815.34;;;7.43;55.73
34081;BME280;20358;50.272;19.026;2024-03-07T08:14:55;98813.53;;;7.45;55.36
34081;BME280;20358;50.272;19.026;2024-03-07T08:18:02;98808.22;;;7.49;55.26
34081;BME280;20358;50.272;19.026;2024-03-07T08:21:13;98814.13;;;7.55;55.27
34081;BME280;20358;50.272;19.026;2024-03-07T08:24:22;98820.75;;;7.65;55.52
34081;BME280;20358;50.272;19.026;2024-03-07T08:27:28;98822.22;;;7.73;55.26
34081;BME280;20358;50.272;19.026;2024-03-07T08:30:35;98816.94;;;7.76;54.81
34081;BME280;20358;50.272;19.026;2024-03-07T08:33:41;98822.91;;;7.80;54.61
34081;BME280;20358;50.272;19.026;2024-03-07T08:36:49;98827.25;;;7.79;54.55
34081;BME280;20358;50.272;19.026;2024-03-07T08:39:57;98824.47;;;7.85;54.66
34081;BME280;20358;50.272;19.026;2024-03-07T08:43:04;98821.16;;;7.80;54.29
34081;BME280;20358;50.272;19.026;2024-03-07T08:46:10;98827.88;;;7.87;54.47
34081;BME280;20358;50.272;19.026;2024-03-07T08:49:17;98834.72;;;7.90;54.55
34081;BME280;20358;50.272;19.026;2024-03-07T08:52:23;98837.97;;;7.96;54.72
34081;BME280;20358;50.272;19.026;2024-03-07T08:55:33;98835.09;;;8.05;54.03
34081;BME280;20358;50.272;19.026;2024-03-07T08:58:40;98832.59;;;8.02;53.47
34081;BME280;20358;50.272;19.026;2024-03-07T09:01:47;98842.25;;;7.99;53.18
34081;BME280;20358;50.272;19.026;2024-03-07T09:04:54;98838.72;;;8.01;53.42
34081;BME280;20358;50.272;19.026;2024-03-07T09:08:01;98843.72;;;8.07;53.27
34081;BME280;20358;50.272;19.026;2024-03-07T09:11:10;98840.31;;;8.05;53.12
34081;BME280;20358;50.272;19.026;2024-03-07T09:14:17;98837.09;;;7.97;52.77
34081;BME280;20358;50.272;19.026;2024-03-07T09:17:23;98843.72;;;8.07;53.36
34081;BME280;20358;50.272;19.026;2024-03-07T09:20:30;98857.91;;;8.27;53.48
34081;BME280;20358;50.272;19.026;2024-03-07T09:23:36;98846.91;;;8.43;52.89
34081;BME280;20358;50.272;19.026;2024-03-07T09:26:45;98849.09;;;8.57;52.39
34081;BME280;20358;50.272;19.026;2024-03-07T09:29:51;98854.09;;;8.63;52.18
34081;BME280;20358;50.272;19.026;2024-03-07T09:32:58;98857.94;;;8.78;52.08
34081;BME280;20358;50.272;19.026;2024-03-07T09:36:05;98860.94;;;8.92;51.85
34081;BME280;20358;50.272;19.026;2024-03-07T09:39:12;98860.69;;;8.99;51.35
34081;BME280;20358;50.272;19.026;2024-03-07T09:42:21;98866.59;;;9.04;51.03
34081;BME280;20358;50.272;19.026;2024-03-07T09:45:35;98868.06;;;9.11;50.83
34081;BME280;20358;50.272;19.026;2024-03-07T09:48:42;98876.56;;;9.16;50.79
34081;BME280;20358;50.272;19.026;2024-03-07T09:51:51;98870.13;;;9.26;50.78
34081;BME280;20358;50.272;19.026;2024-03-07T09:54:59;98864.59;;;9.35;50.99
34081;BME280;20358;50.272;19.026;2024-03-07T09:58:11;98872.06;;;9.45;50.06
34081;BME280;20358;50.272;19.026;2024-03-07T10:01:25;98873.88;;;9.43;49.94
34081;BME280;20358;50.272;19.026;2024-03-07T10:04:40;98870.38;;;9.44;49.81
34081;BME280;20358;50.272;19.026;2024-03-07T10:07:50;98879.09;;;9.43;49.82
34081;BME280;20358;50.272;19.026;2024-03-07T10:10:58;98888.75;;;9.41;49.64
34081;BME280;20358;50.272;19.026;2024-03-07T10:14:07;98880.81;;;9.44;49.93
34081;BME280;20358;50.272;19.026;2024-03-07T10:17:15;98881.63;;;9.46;49.67
34081;BME280;20358;50.272;19.026;2024-03-07T10:20:21;98892.13;;;9.44;49.57
34081;BME280;20358;50.272;19.026;2024-03-07T10:23:28;98874.97;;;9.37;49.41
34081;BME280;20358;50.272;19.026;2024-03-07T10:26:37;98867.31;;;9.32;49.85
34081;BME280;20358;50.272;19.026;2024-03-07T10:29:48;98889.53;;;9.43;50.00
34081;BME280;20358;50.272;19.026;2024-03-07T10:32:58;98887.13;;;9.38;49.46
34081;BME280;20358;50.272;19.026;2024-03-07T10:36:07;98884.72;;;9.32;49.42
34081;BME280;20358;50.272;19.026;2024-03-07T10:39:17;98890.19;;;9.24;49.19
34081;BME280;20358;50.272;19.026;2024-03-07T10:42:29;98885.84;;;9.25;49.68
34081;BME280;20358;50.272;19.026;2024-03-07T10:45:44;98884.72;;;9.32;49.82
34081;BME280;20358;50.272;19.026;2024-03-07T10:48:59;98886.94;;;9.43;49.78
34081;BME280;20358;50.272;19.026;2024-03-07T10:52:13;98888.59;;;9.45;49.42
34081;BME280;20358;50.272;19.026;2024-03-07T10:55:34;98885.69;;;9.53;49.32
34081;BME280;20358;50.272;19.026;2024-03-07T10:58:57;98884.56;;;9.60;49.53
34081;BME280;20358;50.272;19.026;2024-03-07T11:02:20;98883.66;;;9.61;48.79
34081;BME280;20358;50.272;19.026;2024-03-07T11:05:33;98881.84;;;9.63;48.84
34081;BME280;20358;50.272;19.026;2024-03-07T11:08:42;98877.06;;;9.74;49.20
34081;BME280;20358;50.272;19.026;2024-03-07T11:11:49;98876.50;;;9.66;48.53
34081;BME280;20358;50.272;19.026;2024-03-07T11:14:57;98880.59;;;9.73;48.86
34081;BME280;20358;50.272;19.026;2024-03-07T11:18:08;98882.88;;;9.82;48.54
34081;BME280;20358;50.272;19.026;2024-03-07T11:25:00;98883.66;;;9.84;48.28
34081;BME280;20358;50.272;19.026;2024-03-07T11:28:16;98873.09;;;9.87;48.64
34081;BME280;20358;50.272;19.026;2024-03-07T11:31:26;98865.19;;;9.88;48.58
34081;BME280;20358;50.272;19.026;2024-03-07T11:34:38;98855.50;;;9.92;48.02
34081;BME280;20358;50.272;19.026;2024-03-07T11:37:45;98873.13;;;10.09;48.40
34081;BME280;20358;50.272;19.026;2024-03-07T11:41:00;98866.69;;;10.19;48.00
34081;BME280;20358;50.272;19.026;2024-03-07T11:44:07;98865.59;;;10.24;47.85
34081;BME280;20358;50.272;19.026;2024-03-07T11:47:17;98862.03;;;10.25;47.59
34081;BME280;20358;50.272;19.026;2024-03-07T11:50:26;98870.31;;;10.36;47.74
34081;BME280;20358;50.272;19.026;2024-03-07T11:53:38;98861.81;;;10.31;47.31
34081;BME280;20358;50.272;19.026;2024-03-07T11:56:44;98856.81;;;10.25;46.96
34081;BME280;20358;50.272;19.026;2024-03-07T11:59:55;98846.84;;;10.13;46.92
34081;BME280;20358;50.272;19.026;2024-03-07T12:03:14;98846.84;;;10.13;47.39
34081;BME280;20358;50.272;19.026;2024-03-07T12:06:28;98844.78;;;10.21;47.57
34081;BME280;20358;50.272;19.026;2024-03-07T12:09:39;98852.13;;;10.33;47.24
34081;BME280;20358;50.272;19.026;2024-03-07T12:12:48;98843.28;;;10.37;47.46
34081;BME280;20358;50.272;19.026;2024-03-07T12:15:54;98842.72;;;10.29;47.41
34081;BME280;20358;50.272;19.026;2024-03-07T12:19:02;98843.94;;;10.42;46.92
34081;BME280;20358;50.272;19.026;2024-03-07T12:22:11;98856.69;;;10.50;46.75
34081;BME280;20358;50.272;19.026;2024-03-07T12:25:29;98850.59;;;10.49;46.74
34081;BME280;20358;50.272;19.026;2024-03-07T12:28:35;98852.31;;;10.50;46.55
34081;BME280;20358;50.272;19.026;2024-03-07T12:31:42;98853.56;;;10.40;46.55
34081;BME280;20358;50.272;19.026;2024-03-07T12:34:48;98843.28;;;10.37;46.66
34081;BME280;20358;50.272;19.026;2024-03-07T12:37:59;98852.25;;;10.30;46.27
34081;BME280;20358;50.272;19.026;2024-03-07T12:41:07;98850.88;;;10.22;46.92
34081;BME280;20358;50.272;19.026;2024-03-07T12:44:18;98845.22;;;10.09;46.92
34081;BME280;20358;50.272;19.026;2024-03-07T12:47:24;98843.66;;;10.05;47.28
34081;BME280;20358;50.272;19.026;2024-03-07T12:50:32;98843.84;;;10.01;47.31
34081;BME280;20358;50.272;19.026;2024-03-07T12:53:43;98834.78;;;9.87;47.69
34081;BME280;20358;50.272;19.026;2024-03-07T12:56:50;98840.59;;;9.94;47.92
34081;BME280;20358;50.272;19.026;2024-03-07T12:59:56;98841.94;;;10.04;47.89
34081;BME280;20358;50.272;19.026;2024-03-07T13:03:05;98842.63;;;10.09;47.73
34081;BME280;20358;50.272;19.026;2024-03-07T13:06:11;98849.28;;;10.18;47.34
34081;BME280;20358;50.272;19.026;2024-03-07T13:09:21;98856.94;;;10.22;47.20
34081;BME280;20358;50.272;19.026;2024-03-07T13:12:29;98845.47;;;10.26;47.09
34081;BME280;20358;50.272;19.026;2024-03-07T13:15:38;98852.69;;;10.20;46.59
34081;BME280;20358;50.272;19.026;2024-03-07T13:18:44;98841.16;;;10.02;46.66
34081;BME280;20358;50.272;19.026;2024-03-07T13:21:52;98849.00;;;10.02;46.92
34081;BME280;20358;50.272;19.026;2024-03-07T13:25:02;98854.00;;;10.08;46.86
34081;BME280;20358;50.272;19.026;2024-03-07T13:28:17;98853.50;;;10.22;47.10
34081;BME280;20358;50.272;19.026;2024-03-07T13:31:27;98857.25;;;10.36;47.28
34081;BME280;20358;50.272;19.026;2024-03-07T13:34:34;98853.66;;;10.39;46.63
34081;BME280;20358;50.272;19.026;2024-03-07T13:37:42;98852.44;;;10.47;46.42
34081;BME280;20358;50.272;19.026;2024-03-07T13:40:53;98852.50;;;10.46;46.00
34081;BME280;20358;50.272;19.026;2024-03-07T13:43:59;98846.94;;;10.53;46.10
34081;BME280;20358;50.272;19.026;2024-03-07T13:47:06;98853.09;;;10.52;45.40
34081;BME280;20358;50.272;19.026;2024-03-07T13:50:12;98854.88;;;10.52;45.33
34081;BME280;20358;50.272;19.026;2024-03-07T13:53:32;98808.56;;;10.34;45.55
34081;BME280;20358;50.272;19.026;2024-03-07T13:57:05;98851.28;;;10.54;44.61
34081;BME280;20358;50.272;19.026;2024-03-07T14:00:36;98843.31;;;10.57;44.93
34081;BME280;20358;50.272;19.026;2024-03-07T14:04:27;98854.53;;;10.59;44.60
34081;BME280;20358;50.272;19.026;2024-03-07T14:12:16;98850.97;;;10.40;43.88
34081;BME280;20358;50.272;19.026;2024-03-07T14:16:05;98837.97;;;10.39;44.17
34081;BME280;20358;50.272;19.026;2024-03-07T14:19:44;98836.34;;;10.36;44.17
34081;BME280;20358;50.272;19.026;2024-03-07T14:23:41;98839.31;;;10.27;44.04
34081;BME280;20358;50.272;19.026;2024-03-07T14:27:26;98835.66;;;10.31;44.45
34081;BME280;20358;50.272;19.026;2024-03-07T14:30:44;98841.44;;;10.39;44.81
34081;BME280;20358;50.272;19.026;2024-03-07T14:34:06;98845.38;;;10.49;45.03
34081;BME280;20358;50.272;19.026;2024-03-07T14:37:23;98841.72;;;10.53;44.21
34081;BME280;20358;50.272;19.026;2024-03-07T14:40:31;98851.19;;;10.56;44.18
34081;BME280;20358;50.272;19.026;2024-03-07T14:43:41;98839.06;;;10.55;44.25
34081;BME280;20358;50.272;19.026;2024-03-07T14:46:54;98848.41;;;10.61;44.29
34081;BME280;20358;50.272;19.026;2024-03-07T14:50:06;98837.22;;;10.57;43.91
34081;BME280;20358;50.272;19.026;2024-03-07T14:53:15;98838.06;;;10.57;43.73
34081;BME280;20358;50.272;19.026;2024-03-07T14:56:23;98844.88;;;10.62;43.59
34081;BME280;20358;50.272;19.026;2024-03-07T14:59:32;98834.16;;;10.68;43.26
34081;BME280;20358;50.272;19.026;2024-03-07T15:02:39;98852.16;;;10.75;43.25
34081;BME280;20358;50.272;19.026;2024-03-07T15:05:46;98843.56;;;10.72;42.71
34081;BME280;20358;50.272;19.026;2024-03-07T15:08:52;98842.78;;;10.70;42.99
34081;BME280;20358;50.272;19.026;2024-03-07T15:11:58;98834.16;;;10.68;43.00
34081;BME280;20358;50.272;19.026;2024-03-07T15:15:10;98833.09;;;10.72;42.68
34081;BME280;20358;50.272;19.026;2024-03-07T15:18:19;98838.22;;;10.75;42.79
34081;BME280;20358;50.272;19.026;2024-03-07T15:21:26;98839.97;;;10.74;42.51
34081;BME280;20358;50.272;19.026;2024-03-07T15:24:32;98839.28;;;10.71;42.22
34081;BME280;20358;50.272;19.026;2024-03-07T15:27:42;98828.81;;;10.71;42.71
34081;BME280;20358;50.272;19.026;2024-03-07T15:30:50;98828.84;;;10.69;42.47
34081;BME280;20358;50.272;19.026;2024-03-07T15:33:57;98840.94;;;10.72;42.35
34081;BME280;20358;50.272;19.026;2024-03-07T15:37:04;98839.28;;;10.71;42.31
34081;BME280;20358;50.272;19.026;2024-03-07T15:40:12;98838.94;;;10.58;41.85
34081;BME280;20358;50.272;19.026;2024-03-07T15:43:18;98840.16;;;10.49;42.06
34081;BME280;20358;50.272;19.026;2024-03-07T15:46:28;98834.31;;;10.43;42.50
34081;BME280;20358;50.272;19.026;2024-03-07T15:49:38;98836.41;;;10.35;42.36
34081;BME280;20358;50.272;19.026;2024-03-07T15:52:46;98827.41;;;10.20;42.72
34081;BME280;20358;50.272;19.026;2024-03-07T15:55:53;98837.50;;;10.29;42.66
34081;BME280;20358;50.272;19.026;2024-03-07T15:59:01;98839.94;;;10.34;43.03
34081;BME280;20358;50.272;19.026;2024-03-07T16:02:09;98842.47;;;10.35;42.44
34081;BME280;20358;50.272;19.026;2024-03-07T16:05:18;98848.31;;;10.20;42.04
34081;BME280;20358;50.272;19.026;2024-03-07T16:08:27;98840.25;;;10.03;42.10
34081;BME280;20358;50.272;19.026;2024-03-07T16:11:41;98848.81;;;9.85;42.26
34081;BME280;20358;50.272;19.026;2024-03-07T16:14:49;98855.28;;;9.75;42.90
34081;BME280;20358;50.272;19.026;2024-03-07T16:17:59;98859.47;;;9.79;42.93
34081;BME280;20358;50.272;19.026;2024-03-07T16:21:06;98850.84;;;9.77;42.97
34081;BME280;20358;50.272;19.026;2024-03-07T16:24:13;98851.75;;;9.76;43.25
34081;BME280;20358;50.272;19.026;2024-03-07T16:27:19;98860.38;;;9.78;43.45
34081;BME280;20358;50.272;19.026;2024-03-07T16:30:26;98860.53;;;9.75;43.37
34081;BME280;20358;50.272;19.026;2024-03-07T16:33:37;98863.91;;;9.77;43.46
34081;BME280;20358;50.272;19.026;2024-03-07T16:36:43;98861.47;;;9.72;43.44
34081;BME280;20358;50.272;19.026;2024-03-07T16:39:51;98866.53;;;9.77;43.55
34081;BME280;20358;50.272;19.026;2024-03-07T16:42:59;98867.41;;;9.76;43.45
34081;BME280;20358;50.272;19.026;2024-03-07T16:46:10;98869.03;;;9.80;43.45
34081;BME280;20358;50.272;19.026;2024-03-07T16:49:20;98875.94;;;9.81;43.58